Time;durP1;ratioP1;P1;durP2;ratioP2;P2;SDS_P1;SDS_P2;PMS_P1;PMS_P2;Temp;Humidity;BMP_temperature;BMP_pressure;BME280_temperature;BME280_humidity;BME280_pressure;Samples;Min_cycle;Max_cycle;Signal;HPM_P1;HPM_P2
2023/03/05 05:01:09;;;;;;;8.23;1.95;;;2.90;99.90;;;;;;6283083;22;20447;-78
2023/03/05 05:03:35;;;;;;;10.57;1.40;;;2.90;99.90;;;;;;6281679;22;20094;-78
2023/03/05 05:06:01;;;;;;;10.38;1.25;;;2.90;99.90;;;;;;6281826;22;20463;-77
2023/03/05 05:08:27;;;;;;;6.93;1.70;;;2.90;99.90;;;;;;6309573;22;20111;-78
2023/03/05 05:11:01;;;;;;;7.35;2.03;;;2.90;99.90;;;;;;6308835;22;20440;-79
2023/03/05 05:13:27;;;;;;;8.63;1.70;;;2.90;99.90;;;;;;6281482;22;20088;-77
2023/03/05 05:15:53;;;;;;;14.15;1.80;;;2.90;99.90;;;;;;6281243;22;20015;-75
2023/03/05 05:18:19;;;;;;;6.63;1.58;;;2.80;99.90;;;;;;6309430;22;20011;-77
2023/03/05 05:20:45;;;;;;;11.27;1.30;;;2.80;99.90;;;;;;6309038;22;20340;-78
2023/03/05 05:23:10;;;;;;;7.50;1.85;;;2.80;99.90;;;;;;6281547;22;20012;-80
2023/03/05 05:25:36;;;;;;;13.85;2.28;;;2.80;99.90;;;;;;6309069;22;20008;-79
2023/03/05 05:28:02;;;;;;;7.60;2.25;;;2.80;99.90;;;;;;6281406;22;20007;-79
2023/03/05 05:30:27;;;;;;;8.27;1.65;;;2.70;99.90;;;;;;6281137;22;20035;-78
2023/03/05 05:32:53;;;;;;;8.07;1.80;;;2.70;99.90;;;;;;6309158;22;20008;-77
2023/03/05 05:35:18;;;;;;;9.75;1.85;;;2.70;99.90;;;;;;6281492;22;20007;-76
2023/03/05 05:37:44;;;;;;;8.70;1.88;;;2.70;99.90;;;;;;6281267;22;20022;-78
2023/03/05 05:40:10;;;;;;;16.83;3.28;;;2.60;99.90;;;;;;6281534;22;20018;-78
2023/03/05 05:42:36;;;;;;;10.40;2.05;;;2.60;99.90;;;;;;6281291;22;20008;-78
2023/03/05 05:45:02;;;;;;;5.70;1.92;;;2.60;99.90;;;;;;6281295;22;20050;-76
2023/03/05 05:47:28;;;;;;;4.75;1.73;;;2.70;99.90;;;;;;6281121;22;20352;-77
2023/03/05 05:49:55;;;;;;;6.53;1.48;;;2.60;99.90;;;;;;6309076;22;20011;-77
2023/03/05 05:52:21;;;;;;;8.52;1.85;;;2.60;99.90;;;;;;6281074;22;20421;-79
2023/03/05 05:54:47;;;;;;;8.25;1.58;;;2.60;99.90;;;;;;6255886;22;20449;-76
2023/03/05 05:57:13;;;;;;;8.90;1.75;;;2.60;99.90;;;;;;6281157;22;20015;-77
2023/03/05 05:59:41;;;;;;;10.45;1.85;;;2.60;99.90;;;;;;6281235;22;20041;-79
2023/03/05 06:02:07;;;;;;;8.90;1.42;;;2.60;99.90;;;;;;6280976;22;20022;-79
2023/03/05 06:04:34;;;;;;;5.60;1.60;;;2.60;99.90;;;;;;6280702;22;20043;-76
2023/03/05 06:07:00;;;;;;;7.38;1.55;;;2.60;99.90;;;;;;6281291;22;20003;-77
2023/03/05 06:09:26;;;;;;;13.70;1.88;;;2.60;99.90;;;;;;6281081;22;20007;-76
2023/03/05 06:11:52;;;;;;;8.82;2.10;;;2.60;99.90;;;;;;6281209;22;20011;-78
2023/03/05 06:14:18;;;;;;;9.15;2.25;;;2.60;99.90;;;;;;6281112;22;20098;-78
2023/03/05 06:16:44;;;;;;;5.68;1.67;;;2.60;99.90;;;;;;6281198;22;20112;-76
2023/03/05 06:19:11;;;;;;;11.00;1.85;;;2.60;99.90;;;;;;6281140;22;20523;-79
2023/03/05 06:21:37;;;;;;;5.68;1.75;;;2.60;99.90;;;;;;6281076;22;20070;-77
2023/03/05 06:24:03;;;;;;;5.72;1.70;;;2.60;99.90;;;;;;6280972;22;20380;-78
2023/03/05 06:26:28;;;;;;;5.85;1.45;;;2.60;99.90;;;;;;6280848;22;20020;-78
2023/03/05 06:28:54;;;;;;;7.32;1.95;;;2.60;99.90;;;;;;6280756;22;20146;-80
2023/03/05 06:31:24;;;;;;;9.77;2.83;;;2.60;99.90;;;;;;6307853;22;20496;-79
2023/03/05 06:33:50;;;;;;;7.78;1.65;;;2.60;99.90;;;;;;6258388;22;20064;-78
2023/03/05 06:36:18;;;;;;;5.70;1.67;;;2.60;99.90;;;;;;6284271;22;20098;-75
2023/03/05 06:38:44;;;;;;;7.18;1.42;;;2.50;99.90;;;;;;6288092;22;20015;-78
2023/03/05 06:41:12;;;;;;;4.93;1.58;;;2.50;99.90;;;;;;6290971;22;20068;-76
2023/03/05 06:43:40;;;;;;;8.27;1.70;;;2.50;99.90;;;;;;6290212;22;20026;-78
2023/03/05 06:46:14;;;;;;;9.82;2.78;;;2.50;99.90;;;;;;6282337;22;20373;-78
2023/03/05 06:48:42;;;;;;;10.00;2.83;;;2.50;99.90;;;;;;6281812;22;20010;-78
2023/03/05 06:51:16;;;;;;;12.82;2.80;;;2.50;99.90;;;;;;6281340;22;20011;-77
2023/03/05 06:53:43;;;;;;;9.32;2.50;;;2.50;99.90;;;;;;6281470;22;20336;-79
2023/03/05 06:56:09;;;;;;;8.80;2.45;;;2.50;99.90;;;;;;6280944;22;20022;-78
2023/03/05 06:58:34;;;;;;;7.63;2.20;;;2.50;99.90;;;;;;6280794;22;20452;-76
2023/03/05 07:01:03;;;;;;;13.00;1.77;;;2.40;99.90;;;;;;6280326;22;20012;-79
2023/03/05 07:03:29;;;;;;;9.65;2.00;;;2.50;99.90;;;;;;6280386;22;20015;-79
2023/03/05 07:05:54;;;;;;;4.70;1.55;;;2.50;99.90;;;;;;6308102;22;20011;-77
2023/03/05 07:08:20;;;;;;;6.80;1.98;;;2.50;99.90;;;;;;6280576;22;20018;-78
2023/03/05 07:10:46;;;;;;;8.10;2.08;;;2.50;99.90;;;;;;6280562;22;20424;-78
2023/03/05 07:13:11;;;;;;;6.90;2.35;;;2.60;99.90;;;;;;6280660;22;20046;-78
2023/03/05 07:15:38;;;;;;;10.02;1.98;;;2.60;99.90;;;;;;6280940;22;20019;-77
2023/03/05 07:18:04;;;;;;;10.50;1.95;;;2.60;99.90;;;;;;6281015;22;20397;-79
2023/03/05 07:20:30;;;;;;;5.97;1.80;;;2.60;99.90;;;;;;6255083;22;20102;-76
2023/03/05 07:22:56;;;;;;;6.45;2.00;;;2.60;99.90;;;;;;6308305;22;20031;-76
2023/03/05 07:25:23;;;;;;;6.78;2.03;;;2.70;99.90;;;;;;6280654;22;20016;-78
2023/03/05 07:27:49;;;;;;;13.07;2.92;;;2.70;99.90;;;;;;6280411;22;20018;-78
2023/03/05 07:30:14;;;;;;;10.10;2.85;;;2.70;99.90;;;;;;6280880;22;20015;-79
2023/03/05 07:32:40;;;;;;;9.43;2.40;;;2.70;99.90;;;;;;6281564;22;20003;-80
2023/03/05 07:35:06;;;;;;;8.40;2.60;;;2.80;99.90;;;;;;6308157;22;20011;-78
2023/03/05 07:37:32;;;;;;;7.05;1.90;;;2.80;99.90;;;;;;6308718;22;20061;-78
2023/03/05 07:39:58;;;;;;;7.13;1.80;;;2.80;99.90;;;;;;6308433;22;20007;-79
2023/03/05 07:42:23;;;;;;;8.10;1.80;;;2.80;99.90;;;;;;6280847;22;20011;-78
2023/03/05 07:44:49;;;;;;;5.25;2.28;;;2.90;99.90;;;;;;6280356;22;20090;-78
2023/03/05 07:47:15;;;;;;;8.52;1.63;;;2.90;99.90;;;;;;6280249;22;20436;-76
2023/03/05 07:49:41;;;;;;;12.25;2.25;;;3.00;99.90;;;;;;6280119;22;20018;-79
2023/03/05 07:52:07;;;;;;;6.32;1.58;;;3.00;99.90;;;;;;6308479;22;20004;-80
2023/03/05 07:54:37;;;;;;;9.23;1.90;;;3.00;99.90;;;;;;6308166;22;20011;-76
2023/03/05 07:57:06;;;;;;;7.72;1.30;;;3.10;99.90;;;;;;6280123;22;20443;-78
2023/03/05 07:59:32;;;;;;;12.10;3.25;;;3.20;99.90;;;;;;6280579;22;20329;-78
2023/03/05 08:01:58;;;;;;;12.52;1.92;;;3.20;99.90;;;;;;6307920;22;20015;-80
2023/03/05 08:04:24;;;;;;;7.80;1.85;;;3.30;99.90;;;;;;6280553;22;20472;-79
2023/03/05 08:06:50;;;;;;;8.23;1.75;;;3.30;99.90;;;;;;6280315;22;20012;-79
2023/03/05 08:09:16;;;;;;;6.75;1.67;;;3.40;99.90;;;;;;6254891;22;20008;-77
2023/03/05 08:11:42;;;;;;;8.02;1.30;;;3.40;99.90;;;;;;6254666;22;20095;-78
2023/03/05 08:14:08;;;;;;;9.65;1.83;;;3.50;99.90;;;;;;6280234;22;20015;-76
2023/03/05 08:16:34;;;;;;;4.47;1.63;;;3.50;99.90;;;;;;6279845;22;20019;-77
2023/03/05 08:19:00;;;;;;;14.00;2.67;;;3.60;99.90;;;;;;6280561;22;20337;-77
2023/03/05 08:21:28;;;;;;;3.70;1.10;;;3.60;99.90;;;;;;6308151;22;20022;-77
2023/03/05 08:23:57;;;;;;;10.95;1.55;;;3.70;99.90;;;;;;6254554;22;20083;-78
2023/03/05 08:26:28;;;;;;;11.93;1.92;;;3.80;99.90;;;;;;6280505;22;20011;-79
2023/03/05 08:28:54;;;;;;;7.85;1.50;;;3.90;99.90;;;;;;6282118;22;20014;-77
2023/03/05 08:31:22;;;;;;;5.40;1.48;;;4.00;99.90;;;;;;6309724;22;20018;-79
2023/03/05 08:34:05;;;;;;;7.65;1.40;;;4.00;99.90;;;;;;6282701;22;20293;-77
2023/03/05 08:36:30;;;;;;;7.75;1.30;;;4.10;99.90;;;;;;6256008;22;20015;-78
2023/03/05 08:38:57;;;;;;;11.43;2.03;;;4.20;99.90;;;;;;6281506;22;20045;-77
2023/03/05 08:41:23;;;;;;;7.97;1.40;;;4.30;99.90;;;;;;6309699;22;20013;-77
2023/03/05 08:43:49;;;;;;;10.65;2.78;;;4.50;99.90;;;;;;6281961;22;20049;-76
2023/03/05 08:46:15;;;;;;;7.38;1.27;;;4.50;99.90;;;;;;6256845;22;20022;-79
2023/03/05 08:48:41;;;;;;;7.25;1.40;;;4.70;99.90;;;;;;6281650;22;20440;-78
2023/03/05 08:51:17;;;;;;;7.32;1.20;;;4.70;99.90;;;;;;6282517;22;20015;-77
2023/03/05 08:53:43;;;;;;;8.48;1.30;;;4.80;99.90;;;;;;6282333;22;20037;-77
2023/03/05 08:56:09;;;;;;;7.57;1.60;;;4.90;99.90;;;;;;6310046;22;20015;-77
2023/03/05 08:58:35;;;;;;;10.57;1.27;;;4.90;99.90;;;;;;6282306;22;20026;-77
2023/03/05 09:01:01;;;;;;;8.98;1.63;;;5.00;99.90;;;;;;6276825;22;20015;-77
2023/03/05 09:03:26;;;;;;;6.45;1.60;;;5.10;99.90;;;;;;6276941;22;20011;-77
2023/03/05 09:05:52;;;;;;;6.38;1.35;;;5.10;99.90;;;;;;6278178;22;20012;-76
2023/03/05 09:08:18;;;;;;;8.30;1.10;;;5.30;99.90;;;;;;6276676;22;20065;-79
2023/03/05 09:10:44;;;;;;;5.45;1.23;;;5.40;99.90;;;;;;6278918;22;20015;-76
2023/03/05 09:13:10;;;;;;;11.73;1.35;;;5.60;99.90;;;;;;6276460;22;20058;-78
2023/03/05 09:15:37;;;;;;;8.32;1.00;;;5.70;99.90;;;;;;6276194;22;20413;-78
2023/03/05 09:18:02;;;;;;;6.13;1.23;;;5.90;99.90;;;;;;6276517;22;20020;-78
2023/03/05 09:20:28;;;;;;;5.40;1.20;;;6.00;99.90;;;;;;6276096;22;20351;-77
2023/03/05 09:22:54;;;;;;;7.68;1.42;;;6.20;99.90;;;;;;6276102;22;20019;-78
2023/03/05 09:25:20;;;;;;;8.55;1.25;;;6.20;99.90;;;;;;6276013;22;20015;-79
2023/03/05 09:27:45;;;;;;;6.18;1.20;;;6.20;99.90;;;;;;6276171;22;20504;-76
2023/03/05 09:30:12;;;;;;;13.98;1.42;;;6.10;99.90;;;;;;6276471;22;20090;-77
2023/03/05 09:32:38;;;;;;;6.43;1.00;;;5.90;99.90;;;;;;6277999;22;20062;-78
2023/03/05 09:35:05;;;;;;;7.13;1.40;;;5.80;99.90;;;;;;6276137;22;20441;-78
2023/03/05 09:37:30;;;;;;;8.90;1.17;;;5.70;99.90;;;;;;6276396;22;20099;-77
2023/03/05 09:39:56;;;;;;;8.23;1.77;;;5.80;99.90;;;;;;6276393;22;20051;-77
2023/03/05 09:42:31;;;;;;;4.53;1.38;;;5.90;99.90;;;;;;6250694;22;20016;-78
2023/03/05 09:45:28;;;;;;;7.05;1.45;;;6.00;99.90;;;;;;6275933;22;20015;-80
2023/03/05 09:48:21;;;;;;;7.57;1.20;;;6.10;99.90;;;;;;6271549;22;20314;-77
2023/03/05 09:50:53;;;;;;;7.13;1.00;;;6.20;99.90;;;;;;6276278;22;20016;-77
2023/03/05 09:53:40;;;;;;;3.30;0.77;;;6.30;99.90;;;;;;6276329;22;20012;-78
2023/03/05 09:56:19;;;;;;;5.18;0.93;;;6.40;99.90;;;;;;6276143;22;20016;-76
2023/03/05 09:59:08;;;;;;;9.85;0.93;;;6.40;99.90;;;;;;6276265;22;20023;-77
2023/03/05 10:01:41;;;;;;;6.70;0.90;;;6.40;99.90;;;;;;6250426;22;20015;-78
2023/03/05 10:04:19;;;;;;;4.78;1.40;;;6.40;99.90;;;;;;6276160;22;20338;-77
2023/03/05 10:07:04;;;;;;;5.97;0.80;;;6.50;99.90;;;;;;6275854;22;20020;-77
2023/03/05 10:09:38;;;;;;;7.57;1.10;;;6.50;99.90;;;;;;6275764;22;20008;-78
2023/03/05 10:12:26;;;;;;;3.33;0.77;;;6.60;99.90;;;;;;6277902;22;20047;-77
2023/03/05 10:14:53;;;;;;;5.97;0.70;;;6.80;99.90;;;;;;6260184;22;20441;-77
2023/03/05 10:17:48;;;;;;;4.32;0.73;;;6.90;99.90;;;;;;6250520;22;20039;-77
2023/03/05 10:20:32;;;;;;;4.38;1.20;;;6.90;99.90;;;;;;6275997;22;20011;-79
2023/03/05 10:23:07;;;;;;;4.35;0.82;;;7.00;99.90;;;;;;6276613;22;20439;-78
2023/03/05 10:25:51;;;;;;;3.22;0.82;;;6.80;99.90;;;;;;6250720;22;20011;-79
2023/03/05 10:28:33;;;;;;;2.50;0.80;;;6.60;99.90;;;;;;6278017;22;20038;-79
2023/03/05 10:31:49;;;;;;;2.90;0.70;;;5.90;99.90;;;;;;6277989;22;20012;-77
2023/03/05 10:34:46;;;;;;;3.40;0.80;;;5.40;99.90;;;;;;6188968;23;20114;-80
2023/03/05 10:37:24;;;;;;;3.30;1.00;;;5.10;99.90;;;;;;6227591;22;20011;-80
2023/03/05 10:40:11;;;;;;;6.22;0.75;;;5.00;99.90;;;;;;6275625;22;20034;-79
2023/03/05 10:42:59;;;;;;;4.78;1.00;;;5.00;99.90;;;;;;6251076;22;20019;-77
2023/03/05 10:45:46;;;;;;;6.00;2.80;;;5.10;99.90;;;;;;6250091;22;20456;-77
2023/03/05 10:48:26;;;;;;;17.05;6.45;;;5.20;99.90;;;;;;6277639;22;20091;-80
2023/03/05 10:51:00;;;;;;;11.07;2.00;;;5.40;99.90;;;;;;6249428;22;20018;-78
2023/03/05 10:53:37;;;;;;;3.60;0.90;;;5.60;99.90;;;;;;6275750;22;20433;-78
2023/03/05 10:56:05;;;;;;;9.50;1.55;;;5.80;99.90;;;;;;6249860;22;20437;-78
2023/03/05 10:58:31;;;;;;;7.28;1.10;;;6.10;99.90;;;;;;6276244;22;20008;-78
2023/03/05 11:00:58;;;;;;;7.32;1.55;;;6.40;99.90;;;;;;6277368;22;20018;-78
2023/03/05 11:03:23;;;;;;;5.43;0.95;;;6.60;99.90;;;;;;6253430;22;20019;-78
2023/03/05 11:06:00;;;;;;;5.05;1.17;;;6.80;99.90;;;;;;6277065;22;20015;-77
2023/03/05 11:08:35;;;;;;;4.80;0.80;;;7.10;99.90;;;;;;6285038;22;20012;-76
2023/03/05 11:11:15;;;;;;;5.68;0.73;;;7.20;99.90;;;;;;6282776;22;20012;-75
2023/03/05 11:13:51;;;;;;;5.40;0.50;;;6.90;99.90;;;;;;6256353;22;20016;-76
2023/03/05 11:16:33;;;;;;;6.40;0.85;;;6.60;99.90;;;;;;6257476;22;20401;-79
2023/03/05 11:19:25;;;;;;;5.60;0.80;;;6.30;99.90;;;;;;6251383;22;20102;-79
2023/03/05 11:22:06;;;;;;;4.95;0.60;;;6.20;99.90;;;;;;6250928;22;20043;-78
2023/03/05 11:24:32;;;;;;;5.78;1.00;;;6.00;99.90;;;;;;6250420;22;20078;-79
2023/03/05 11:26:58;;;;;;;9.40;1.02;;;6.10;99.90;;;;;;6277722;22;20022;-77
2023/03/05 11:29:32;;;;;;;7.63;1.05;;;6.30;99.90;;;;;;6275605;22;20341;-78
2023/03/05 11:32:24;;;;;;;4.35;0.88;;;6.40;99.90;;;;;;6249724;22;20018;-79
2023/03/05 11:34:50;;;;;;;5.15;0.68;;;6.60;99.90;;;;;;6275285;22;20011;-79
2023/03/05 11:37:30;;;;;;;6.43;0.88;;;6.70;99.90;;;;;;6277024;22;20333;-78
2023/03/05 11:40:23;;;;;;;6.35;1.05;;;6.80;99.90;;;;;;6277220;22;20018;-78
2023/03/05 11:42:58;;;;;;;4.45;1.17;;;7.00;99.90;;;;;;6277125;22;20015;-79
2023/03/05 11:45:25;;;;;;;3.25;0.70;;;7.00;99.90;;;;;;6249576;22;20023;-78
2023/03/05 11:48:12;;;;;;;5.32;0.60;;;7.10;99.90;;;;;;6275127;22;20008;-79
2023/03/05 11:50:40;;;;;;;2.42;0.88;;;7.20;99.90;;;;;;6258741;22;20018;-79
2023/03/05 11:53:13;;;;;;;7.35;1.35;;;7.30;99.90;;;;;;6275211;22;20008;-78
2023/03/05 11:55:57;;;;;;;7.30;1.10;;;7.30;99.90;;;;;;6249440;22;20043;-78
2023/03/05 11:58:40;;;;;;;6.15;1.10;;;7.40;99.90;;;;;;6274804;22;20098;-78
2023/03/05 12:01:18;;;;;;;7.05;1.73;;;7.50;99.90;;;;;;6274634;22;20050;-79
2023/03/05 12:03:44;;;;;;;3.15;0.77;;;7.50;99.90;;;;;;6278866;22;20011;-78
2023/03/05 12:06:15;;;;;;;4.28;0.73;;;7.50;99.90;;;;;;6278509;22;20012;-78
2023/03/05 12:08:45;;;;;;;4.47;0.80;;;7.40;99.90;;;;;;6276930;22;20046;-78
2023/03/05 12:11:35;;;;;;;5.70;1.23;;;7.40;99.90;;;;;;6277668;22;20383;-79
2023/03/05 12:14:14;;;;;;;7.13;1.70;;;7.20;99.90;;;;;;6278069;22;20433;-78
2023/03/05 12:16:42;;;;;;;8.65;1.38;;;7.10;99.90;;;;;;6278675;22;20022;-77
2023/03/05 12:19:41;;;;;;;3.90;1.48;;;6.90;99.90;;;;;;6278665;22;20065;-78
2023/03/05 12:22:20;;;;;;;8.35;1.20;;;6.80;99.90;;;;;;6277124;22;20074;-79
2023/03/05 12:24:47;;;;;;;2.47;0.98;;;6.80;99.90;;;;;;6278644;22;20024;-76
2023/03/05 12:27:15;;;;;;;5.65;0.93;;;6.80;99.90;;;;;;6277327;22;20043;-79
2023/03/05 12:29:49;;;;;;;6.93;1.80;;;6.70;99.90;;;;;;6277147;22;20012;-79
2023/03/05 12:32:21;;;;;;;8.32;1.88;;;6.70;99.90;;;;;;6277293;22;20065;-79
2023/03/05 12:35:00;;;;;;;6.00;0.90;;;6.70;99.90;;;;;;6277139;22;20031;-79
2023/03/05 12:37:26;;;;;;;4.93;0.90;;;6.80;99.90;;;;;;6279428;22;20056;-77
2023/03/05 12:40:09;;;;;;;4.32;1.17;;;7.00;99.90;;;;;;6278855;22;20377;-77
2023/03/05 12:42:38;;;;;;;3.42;1.30;;;7.10;99.90;;;;;;6251481;22;20015;-78
2023/03/05 12:45:15;;;;;;;7.10;1.10;;;7.30;99.90;;;;;;6276848;22;20065;-78
2023/03/05 12:47:45;;;;;;;5.35;0.80;;;7.50;99.90;;;;;;6276498;22;20016;-78
2023/03/05 12:50:37;;;;;;;3.42;0.88;;;7.60;99.90;;;;;;6277010;22;20458;-79
2023/03/05 12:53:03;;;;;;;5.93;0.90;;;7.60;99.90;;;;;;6242027;22;20019;-77
2023/03/05 12:55:46;;;;;;;9.40;2.13;;;7.60;99.90;;;;;;6276650;22;20008;-78
2023/03/05 12:58:47;;;;;;;5.72;0.77;;;7.80;99.90;;;;;;6251737;22;20030;-77
2023/03/05 13:01:41;;;;;;;3.42;0.80;;;8.30;99.90;;;;;;6290526;22;20011;-78
2023/03/05 13:04:15;;;;;;;5.25;1.50;;;8.60;99.90;;;;;;6282934;22;20298;-78
2023/03/05 13:06:41;;;;;;;6.03;1.15;;;8.40;99.90;;;;;;6282163;22;20018;-79
2023/03/05 13:09:16;;;;;;;5.78;1.65;;;8.40;99.90;;;;;;6309477;22;20031;-77
2023/03/05 13:11:48;;;;;;;2.60;0.68;;;8.40;99.90;;;;;;6281754;22;20061;-77
2023/03/05 13:14:28;;;;;;;4.47;1.15;;;8.10;99.90;;;;;;6281338;22;20427;-78
2023/03/05 13:16:54;;;;;;;3.17;0.75;;;8.10;99.90;;;;;;6281825;22;20068;-78
2023/03/05 13:19:21;;;;;;;7.30;1.67;;;8.00;99.90;;;;;;6281697;22;20337;-79
2023/03/05 13:22:00;;;;;;;5.50;1.08;;;7.90;99.90;;;;;;6309344;22;20034;-78
2023/03/05 13:24:27;;;;;;;4.20;1.10;;;7.80;99.90;;;;;;6281711;22;20337;-77
2023/03/05 13:26:53;;;;;;;4.43;1.02;;;7.70;99.90;;;;;;6255938;22;20020;-75
2023/03/05 13:29:21;;;;;;;4.25;0.80;;;7.80;99.90;;;;;;6281381;22;20337;-79
2023/03/05 13:31:49;;;;;;;6.95;0.90;;;8.10;99.90;;;;;;6281303;22;20094;-78
2023/03/05 13:34:14;;;;;;;6.38;1.00;;;8.30;99.90;;;;;;6308710;22;20017;-75
2023/03/05 13:36:55;;;;;;;6.78;1.33;;;8.50;99.90;;;;;;6255683;22;20046;-76
2023/03/05 13:39:27;;;;;;;4.88;1.13;;;8.50;99.90;;;;;;6281227;22;20043;-74
2023/03/05 13:42:19;;;;;;;8.98;1.40;;;8.30;99.90;;;;;;6308833;22;20011;-72
2023/03/05 13:44:54;;;;;;;5.43;1.60;;;8.00;99.90;;;;;;6308710;22;20314;-75
2023/03/05 13:47:22;;;;;;;3.95;1.10;;;7.70;99.90;;;;;;6281260;22;20011;-74
2023/03/05 13:49:55;;;;;;;5.82;2.10;;;7.60;99.90;;;;;;6281058;22;20096;-75
2023/03/05 13:52:31;;;;;;;8.38;2.22;;;7.50;99.90;;;;;;6281115;22;20315;-74
2023/03/05 13:55:01;;;;;;;7.40;1.40;;;7.40;99.90;;;;;;6308611;22;20015;-76
2023/03/05 13:57:45;;;;;;;5.43;1.58;;;7.20;99.90;;;;;;6281244;22;20073;-73
2023/03/05 14:00:29;;;;;;;5.07;1.00;;;7.10;99.90;;;;;;6281100;22;20013;-77
2023/03/05 14:03:08;;;;;;;4.22;1.00;;;7.00;99.90;;;;;;6250777;22;20441;-76
2023/03/05 14:05:34;;;;;;;7.53;2.25;;;7.00;99.90;;;;;;6277857;22;20480;-73
2023/03/05 14:08:00;;;;;;;3.58;1.02;;;7.00;99.90;;;;;;6250535;22;20012;-74
2023/03/05 14:10:31;;;;;;;5.70;1.30;;;7.00;99.90;;;;;;6250201;22;20015;-77
2023/03/05 14:13:00;;;;;;;5.70;1.30;;;7.00;99.90;;;;;;6249957;22;20015;-73
2023/03/05 14:15:28;;;;;;;8.02;1.38;;;6.90;99.90;;;;;;6250272;22;20479;-75
2023/03/05 14:18:12;;;;;;;5.50;1.67;;;6.80;99.90;;;;;;6249891;22;20429;-75
2023/03/05 14:20:58;;;;;;;3.95;1.13;;;6.70;99.90;;;;;;6249807;22;20012;-73
2023/03/05 14:23:42;;;;;;;7.13;1.00;;;6.60;99.90;;;;;;6249088;22;20468;-76
2023/03/05 14:26:20;;;;;;;4.20;1.30;;;6.60;99.90;;;;;;6277461;22;20012;-75
2023/03/05 14:29:13;;;;;;;4.63;1.25;;;6.50;99.90;;;;;;6277376;22;20012;-76
2023/03/05 14:31:50;;;;;;;8.93;3.05;;;6.50;99.90;;;;;;6250074;22;20022;-75
2023/03/05 14:34:34;;;;;;;5.35;1.63;;;6.50;99.90;;;;;;6224593;22;20019;-77
2023/03/05 14:37:04;;;;;;;3.75;1.40;;;6.50;99.90;;;;;;6250251;22;20018;-73
2023/03/05 14:39:38;;;;;;;6.95;1.25;;;6.40;99.90;;;;;;6224559;22;20016;-77
2023/03/05 14:42:31;;;;;;;9.77;2.93;;;6.40;99.90;;;;;;6224979;22;20502;-79
2023/03/05 14:45:19;;;;;;;6.13;2.17;;;6.40;99.90;;;;;;6249977;22;20019;-71
2023/03/05 14:47:45;;;;;;;7.07;1.75;;;6.40;99.90;;;;;;6250896;22;20031;-78
2023/03/05 14:50:25;;;;;;;11.18;1.80;;;6.40;99.90;;;;;;6277083;22;20004;-78
2023/03/05 14:52:55;;;;;;;7.88;2.92;;;6.40;99.90;;;;;;6277079;22;20447;-76
2023/03/05 14:55:24;;;;;;;4.07;1.48;;;6.40;99.90;;;;;;6249845;22;20024;-75
2023/03/05 14:57:53;;;;;;;5.68;1.48;;;6.50;99.90;;;;;;6250215;22;20019;-77
2023/03/05 15:00:25;;;;;;;9.10;1.40;;;6.40;99.90;;;;;;6277870;22;20449;-76
2023/03/05 15:02:51;;;;;;;4.63;1.30;;;6.50;99.90;;;;;;6308309;22;20004;-74
2023/03/05 15:05:17;;;;;;;5.97;1.80;;;6.60;99.90;;;;;;6280466;22;20057;-74
2023/03/05 15:07:44;;;;;;;5.60;1.60;;;6.60;99.90;;;;;;6280583;22;20011;-75
2023/03/05 15:10:21;;;;;;;3.22;1.45;;;6.60;99.90;;;;;;6280729;22;20045;-79
2023/03/05 15:12:49;;;;;;;3.25;0.95;;;6.70;99.90;;;;;;6280497;22;20034;-76
2023/03/05 15:15:16;;;;;;;7.55;3.60;;;6.60;99.90;;;;;;6281064;22;20030;-77
2023/03/05 15:17:46;;;;;;;5.05;1.20;;;6.70;99.90;;;;;;6280971;22;20449;-75
2023/03/05 15:20:31;;;;;;;7.90;1.42;;;6.60;99.90;;;;;;6280259;22;20525;-75
2023/03/05 15:22:57;;;;;;;5.82;0.95;;;6.50;99.90;;;;;;6279979;22;20061;-73
2023/03/05 15:25:27;;;;;;;4.65;1.05;;;6.50;99.90;;;;;;6280073;22;20015;-76
2023/03/05 15:27:53;;;;;;;3.78;0.98;;;6.40;99.90;;;;;;6280353;22;20011;-75
2023/03/05 15:30:26;;;;;;;3.13;0.70;;;6.40;99.90;;;;;;6280240;22;20018;-75
2023/03/05 15:32:53;;;;;;;6.95;0.90;;;6.30;99.90;;;;;;6280314;22;20082;-77
2023/03/05 15:35:20;;;;;;;9.68;1.10;;;6.30;99.90;;;;;;6280305;22;20019;-76
2023/03/05 15:37:45;;;;;;;4.95;1.35;;;6.20;99.90;;;;;;6281302;22;20026;-75
2023/03/05 15:40:12;;;;;;;3.90;1.00;;;6.20;99.90;;;;;;6256729;22;20015;-74
2023/03/05 15:42:38;;;;;;;10.38;1.10;;;6.20;99.90;;;;;;6282435;22;20011;-75
2023/03/05 15:45:04;;;;;;;5.93;1.30;;;6.20;99.90;;;;;;6257120;22;20019;-76
2023/03/05 15:47:29;;;;;;;5.93;1.98;;;6.10;99.90;;;;;;6282592;22;20372;-76
2023/03/05 15:49:55;;;;;;;3.15;1.00;;;6.10;99.90;;;;;;6282409;22;20072;-74
2023/03/05 15:52:20;;;;;;;3.53;0.90;;;6.10;99.90;;;;;;6282286;22;20084;-75
2023/03/05 15:54:46;;;;;;;5.00;1.15;;;6.10;99.90;;;;;;6310174;22;20019;-74
2023/03/05 15:57:12;;;;;;;5.50;1.48;;;6.10;99.90;;;;;;6311913;22;20377;-72
2023/03/05 15:59:37;;;;;;;2.22;0.90;;;6.10;99.90;;;;;;6285828;22;20015;-71
2023/03/05 16:02:03;;;;;;;5.70;1.15;;;6.10;99.90;;;;;;6310203;22;20012;-75
2023/03/05 16:04:29;;;;;;;5.72;1.42;;;6.10;99.90;;;;;;6309705;22;20067;-73
2023/03/05 16:06:57;;;;;;;6.93;1.30;;;6.10;99.90;;;;;;6310191;22;20313;-73
2023/03/05 16:09:25;;;;;;;8.55;1.25;;;6.30;99.90;;;;;;6310084;22;20371;-74
2023/03/05 16:11:51;;;;;;;3.22;0.90;;;6.40;99.90;;;;;;6310092;22;20419;-74
2023/03/05 16:14:22;;;;;;;4.82;0.95;;;6.40;99.90;;;;;;6282241;22;20030;-74
2023/03/05 16:16:48;;;;;;;5.43;0.88;;;6.40;99.90;;;;;;6282295;22;20011;-74
2023/03/05 16:19:17;;;;;;;3.88;0.70;;;6.30;99.90;;;;;;6309057;22;20044;-74
2023/03/05 16:21:43;;;;;;;5.22;1.00;;;6.40;99.90;;;;;;6256272;22;20337;-75
2023/03/05 16:24:09;;;;;;;4.63;1.35;;;6.30;99.90;;;;;;6309077;22;20007;-74
2023/03/05 16:26:39;;;;;;;5.32;1.98;;;6.30;99.90;;;;;;6281913;22;20318;-74
2023/03/05 16:29:05;;;;;;;7.30;2.05;;;6.20;99.90;;;;;;6256061;22;20038;-74
2023/03/05 16:31:33;;;;;;;6.18;1.38;;;6.30;99.90;;;;;;6281446;22;20019;-73
2023/03/05 16:34:00;;;;;;;3.95;1.38;;;6.20;99.90;;;;;;6309163;22;20366;-74
2023/03/05 16:36:33;;;;;;;5.15;1.25;;;6.10;99.90;;;;;;6281714;22;20413;-74
2023/03/05 16:39:01;;;;;;;4.97;1.10;;;6.10;99.90;;;;;;6281771;22;20037;-75
2023/03/05 16:41:26;;;;;;;5.50;1.13;;;6.20;99.90;;;;;;6281805;22;20022;-74
2023/03/05 16:43:55;;;;;;;4.55;1.27;;;6.20;99.90;;;;;;6308997;22;20054;-75
2023/03/05 16:46:22;;;;;;;12.57;1.90;;;6.10;99.90;;;;;;6309160;22;20007;-75
2023/03/05 16:48:47;;;;;;;11.00;2.40;;;6.10;99.90;;;;;;6308889;22;20034;-74
2023/03/05 16:51:13;;;;;;;6.50;2.00;;;6.10;99.90;;;;;;6309332;22;20371;-75
2023/03/05 16:53:39;;;;;;;3.47;1.60;;;6.00;99.90;;;;;;6281390;22;20012;-74
2023/03/05 16:56:08;;;;;;;4.72;1.52;;;6.00;99.90;;;;;;6281519;22;20026;-74
2023/03/05 16:58:35;;;;;;;6.30;2.58;;;5.90;99.90;;;;;;6281504;22;20015;-77
2023/03/05 17:01:01;;;;;;;7.85;2.10;;;5.80;99.90;;;;;;6275951;22;20016;-73
2023/03/05 17:03:27;;;;;;;5.75;1.55;;;5.70;99.90;;;;;;6277623;22;20016;-75
2023/03/05 17:05:53;;;;;;;5.85;1.63;;;5.70;99.90;;;;;;6276340;22;20012;-74
2023/03/05 17:08:19;;;;;;;6.57;1.35;;;5.60;99.90;;;;;;6250703;22;20011;-74
2023/03/05 17:10:45;;;;;;;4.15;1.50;;;5.50;99.90;;;;;;6276374;22;20011;-74
2023/03/05 17:13:11;;;;;;;4.18;1.17;;;5.40;99.90;;;;;;6278315;22;20015;-74
2023/03/05 17:15:37;;;;;;;4.50;1.48;;;5.30;99.90;;;;;;6277224;22;20011;-74
2023/03/05 17:18:03;;;;;;;6.97;1.70;;;5.30;99.90;;;;;;6276272;22;20096;-74
2023/03/05 17:20:29;;;;;;;6.82;1.80;;;5.20;99.90;;;;;;6277177;22;20012;-74
2023/03/05 17:22:54;;;;;;;9.88;2.08;;;5.10;99.90;;;;;;6278021;22;20472;-73
2023/03/05 17:25:20;;;;;;;11.38;3.20;;;5.00;99.90;;;;;;6276354;22;20008;-73
2023/03/05 17:27:46;;;;;;;9.75;3.00;;;5.00;99.90;;;;;;6276965;22;20062;-74
2023/03/05 17:30:13;;;;;;;9.60;2.80;;;4.90;99.90;;;;;;6278785;22;20008;-75
2023/03/05 17:32:40;;;;;;;10.38;3.03;;;4.80;99.90;;;;;;6276229;22;20387;-75
2023/03/05 17:35:07;;;;;;;15.00;3.75;;;4.80;99.90;;;;;;6276282;22;20022;-75
2023/03/05 17:37:32;;;;;;;13.80;3.10;;;4.70;99.90;;;;;;6276592;22;20077;-75
2023/03/05 17:39:58;;;;;;;9.05;2.25;;;4.60;99.90;;;;;;6276098;22;20361;-75
2023/03/05 17:42:23;;;;;;;9.35;2.50;;;4.60;99.90;;;;;;6276067;22;20011;-75
2023/03/05 17:44:49;;;;;;;6.70;2.70;;;4.50;99.90;;;;;;6276039;22;20485;-74
2023/03/05 17:47:15;;;;;;;7.28;2.35;;;4.40;99.90;;;;;;6277434;22;20019;-75
2023/03/05 17:49:41;;;;;;;6.35;2.28;;;4.40;99.90;;;;;;6277596;22;20019;-74
2023/03/05 17:52:06;;;;;;;6.18;2.03;;;4.30;99.90;;;;;;6275777;22;20420;-74
2023/03/05 17:54:32;;;;;;;6.28;2.30;;;4.20;99.90;;;;;;6277997;22;20019;-75
2023/03/05 17:56:59;;;;;;;6.05;2.28;;;4.20;99.90;;;;;;6278095;22;20004;-75
2023/03/05 17:59:25;;;;;;;7.22;2.70;;;4.10;99.90;;;;;;6277175;22;20012;-74
2023/03/05 18:01:51;;;;;;;9.60;3.15;;;4.10;99.90;;;;;;6297626;22;20314;-75
2023/03/05 18:04:18;;;;;;;9.90;3.65;;;4.00;99.90;;;;;;6308384;22;20033;-74
2023/03/05 18:06:44;;;;;;;15.20;4.38;;;4.00;99.90;;;;;;6308794;22;20013;-74
2023/03/05 18:09:10;;;;;;;9.32;4.53;;;4.00;99.90;;;;;;6308683;22;20010;-73
2023/03/05 18:11:36;;;;;;;11.23;4.82;;;3.90;99.90;;;;;;6308959;22;20007;-75
2023/03/05 18:14:02;;;;;;;48.63;20.08;;;3.90;99.90;;;;;;6280973;22;20440;-74